• Join FlightAware (Why Join?)
  • Login
  • US Flag 
11:42AM EDT


 

Airport Tracker/Info


-or-


 

Live Flight TrackerFlight Track Log ✈ N968SA ✈ 28-Apr-2013 ✈ KJZI - KPHF

Flight Track Log - Related Links

Times and Time Zones

All times are in EDT time to prevent confusion due to time zone crossing. See the N968SA flight status page for this flight to view local times or setup timezone preferences in your user account.

Time Position Orientation Groundspeed Altitude Reporting Facility
EDT Latitude Longitude Course Direction KTS MPH feet Rate Location/Type
02:58PM 32.8819 -79.7740 44° Northeast  Level FlightAware Approximate
02:59PM 32.9132 -79.7374 44° Northeast  Level FlightAware Approximate
03:00PM 32.9465 -79.7035 40° Northeast  Level FlightAware Approximate
03:01PM 32.9780 -79.6672 44° Northeast  Level FlightAware Approximate
03:02PM 33.0093 -79.6305 45° Northeast  Level FlightAware Approximate
03:03PM 33.0405 -79.5938 45° Northeast  Level FlightAware Approximate
03:04PM 33.0718 -79.5571 45° Northeast  Level FlightAware Approximate
03:05PM 33.1030 -79.5204 45° Northeast  Level FlightAware Approximate
03:06PM 33.1342 -79.4837 45° Northeast  Level FlightAware Approximate
03:07PM 33.1654 -79.4469 45° Northeast  Level FlightAware Approximate
03:08PM 33.1966 -79.4100 45° Northeast  Level FlightAware Approximate
03:09PM 33.2278 -79.3732 45° Northeast  Level FlightAware Approximate
03:10PM 33.2595 -79.3370 44° Northeast  Level FlightAware Approximate
03:11PM 33.2912 -79.3008 44° Northeast  Level FlightAware Approximate
03:12PM 33.3230 -79.2646 44° Northeast  Level FlightAware Approximate
03:13PM 33.3548 -79.2284 44° Northeast  Level FlightAware Approximate
03:14PM 33.3865 -79.1922 44° Northeast  Level FlightAware Approximate
03:15PM 33.4182 -79.1560 44° Northeast  Level FlightAware Approximate
03:16PM 33.4499 -79.1197 44° Northeast  Level FlightAware Approximate
03:17PM 33.4817 -79.0834 44° Northeast  Level FlightAware Approximate
03:18PM 33.5134 -79.0470 44° Northeast  Level FlightAware Approximate
03:19PM 33.5450 -79.0107 44° Northeast  Level FlightAware Approximate
03:20PM 33.5767 -78.9743 44° Northeast  Level FlightAware Approximate
03:21PM 33.6084 -78.9379 44° Northeast  Level FlightAware Approximate
03:22PM 33.6400 -78.9014 44° Northeast  Level FlightAware Approximate
03:23PM 33.6716 -78.8650 44° Northeast  Level FlightAware Approximate
03:24PM 33.7033 -78.8285 44° Northeast  Level FlightAware Approximate
03:25PM 33.7349 -78.7920 44° Northeast  Level FlightAware Approximate
03:26PM 33.7665 -78.7554 44° Northeast  Level FlightAware Approximate
03:27PM 33.7981 -78.7188 44° Northeast  Level FlightAware Approximate
03:28PM 33.8375 -78.6960 25° Northeast  Level FlightAware Approximate
03:29PM 33.8773 -78.6739 25° Northeast  Level FlightAware Approximate
03:30PM 33.9171 -78.6519 25° Northeast  Level FlightAware Approximate
03:31PM 33.9570 -78.6298 25° Northeast  Level FlightAware Approximate
03:32PM 33.9968 -78.6077 25° Northeast  Level FlightAware Approximate
03:33PM 34.0367 -78.5856 25° Northeast  Level FlightAware Approximate
03:34PM 34.0765 -78.5634 25° Northeast  Level FlightAware Approximate
03:35PM 34.1163 -78.5413 25° Northeast  Level FlightAware Approximate
03:36PM 34.1561 -78.5191 25° Northeast  Level FlightAware Approximate
03:37PM 34.1959 -78.4969 25° Northeast  Level FlightAware Approximate
03:38PM 34.2357 -78.4746 25° Northeast  Level FlightAware Approximate
03:39PM 34.2755 -78.4522 25° Northeast  Level FlightAware Approximate
03:40PM 34.3152 -78.4296 25° Northeast  Level FlightAware Approximate
03:41PM 34.3548 -78.4070 25° Northeast  Level FlightAware Approximate
03:42PM 34.3945 -78.3843 25° Northeast  Level FlightAware Approximate
03:43PM 34.4342 -78.3617 25° Northeast  Level FlightAware Approximate
03:44PM 34.4738 -78.3390 25° Northeast  Level FlightAware Approximate
03:45PM 34.5135 -78.3163 25° Northeast  Level FlightAware Approximate
03:46PM 34.5531 -78.2936 25° Northeast  Level FlightAware Approximate
03:47PM 34.5928 -78.2708 25° Northeast  Level FlightAware Approximate
03:48PM 34.6320 -78.2470 27° Northeast  Level FlightAware Approximate
03:49PM 34.6711 -78.2228 27° Northeast  Level FlightAware Approximate
03:50PM 34.7102 -78.1987 27° Northeast  Level FlightAware Approximate
03:51PM 34.7492 -78.1745 27° Northeast  Level FlightAware Approximate
03:52PM 34.7883 -78.1503 27° Northeast  Level FlightAware Approximate
03:52PM 34.8544 -78.1256 22° Northeast 175 201 9,000  Level Washington Center
03:53PM 34.8274 -78.1261 27° Northeast  Level FlightAware Approximate
03:53PM 34.9028 -78.1017 22° Northeast 175 201 9,000  Level Washington Center
03:54PM 34.8665 -78.1019 27° Northeast  Level FlightAware Approximate
03:54PM 34.9431 -78.0750 28° Northeast 174 200 9,000  Level Washington Center
03:55PM 34.9056 -78.0776 27° Northeast  Level FlightAware Approximate
03:55PM 34.9894 -78.0511 23° Northeast 174 200 9,000  Level Washington Center
03:56PM 34.9446 -78.0533 27° Northeast  Level FlightAware Approximate
03:56PM 35.0317 -78.0244 27° Northeast 176 203 9,000  Level Washington Center
03:57PM 34.9850 -78.0325 22° Northeast  Level FlightAware Approximate
03:57PM 35.0803 -77.9981 24° Northeast 176 203 9,000  Level Washington Center
03:58PM 35.0256 -78.0123 22° Northeast  Level FlightAware Approximate
03:58PM 35.1289 -77.9692 26° Northeast 177 204 9,000  Level Washington Center
04:00PM 35.1711 -77.9450 25° Northeast 176 203 9,000  Level Washington Center
04:01PM 35.2153 -77.9183 26° Northeast 175 201 9,000  Level Washington Center
04:02PM 35.2619 -77.8892 27° Northeast 175 201 9,000  Level Washington Center
04:03PM 35.3061 -77.8650 24° Northeast 176 203 9,000  Level Washington Center
04:04PM 35.3483 -77.8356 30° Northeast 174 200 9,000  Level Washington Center
04:05PM 35.3947 -77.8114 23° Northeast 173 199 9,000  Level Washington Center
04:05PM 35.4053 -77.8014 38° Northeast 171 197 9,000  Level Washington Center
04:05PM 35.4306 -77.7919 17° North 172 198 9,000  Level Washington Center
04:06PM 35.4475 -77.7769 36° Northeast 179 206 9,000 60 Level Washington Center
04:07PM 35.4919 -77.7528 24° Northeast 191 220 9,100  Climbing Washington Center
04:08PM 35.5342 -77.7258 27° Northeast 176 203 9,100  Level Washington Center
04:09PM 35.5806 -77.6989 25° Northeast 176 203 9,100  Level Washington Center
04:10PM 35.6289 -77.6722 24° Northeast 176 203 9,100 -60 Level Washington Center
04:11PM 35.6669 -77.6475 28° Northeast 176 203 9,000 -60 Descending Washington Center
04:12PM 35.7069 -77.6231 26° Northeast 171 197 9,000  Level Washington Center
04:13PM 35.7492 -77.5986 25° Northeast 171 197 9,000  Level Washington Center
04:14PM 35.7933 -77.5739 24° Northeast 166 191 9,000  Level Washington Center
04:15PM 35.8356 -77.5469 27° Northeast 166 191 9,000  Level Washington Center
04:16PM 35.8775 -77.5247 23° Northeast 166 191 9,000  Level Washington Center
04:17PM 35.9197 -77.5003 25° Northeast 166 191 9,000  Level Washington Center
04:18PM 35.9619 -77.4731 28° Northeast 166 191 9,000  Level Washington Center
04:19PM 36.0061 -77.4458 26° Northeast 166 191 9,000  Level Washington Center
04:20PM 36.0481 -77.4236 23° Northeast 161 185 9,000  Level Washington Center
04:21PM 36.0883 -77.3964 29° Northeast 161 185 9,000  Level Washington Center
04:22PM 36.1325 -77.3692 26° Northeast 161 185 9,000  Level Washington Center
04:23PM 36.1744 -77.3442 26° Northeast 161 185 9,000  Level Washington Center
04:24PM 36.2167 -77.3169 27° Northeast 161 185 9,000  Level Washington Center
04:25PM 36.2586 -77.2947 23° Northeast 161 185 9,000  Level Washington Center
04:26PM 36.3008 -77.2647 30° Northeast 161 185 9,000  Level Washington Center
04:27PM 36.3428 -77.2422 23° Northeast 161 185 9,000  Level Washington Center
04:28PM 36.3850 -77.2147 28° Northeast 161 185 9,000 60 Level Washington Center
04:29PM 36.4144 -77.2000 22° Northeast 162 186 9,100  Climbing Washington Center
04:29PM 36.4228 -77.1925 36° Northeast 161 185 9,000 -180 Descending Washington Center
04:29PM 36.4397 -77.1850 20° North 163 188 9,000 -240 Level Washington Center
04:30PM 36.4669 -77.1647 31° Northeast 161 185 8,800 -360 Descending Washington Center
04:30PM 36.4839 -77.1600 13° North 172 198 8,700 -600 Descending Washington Center
04:31PM 36.5133 -77.1375 32° Northeast 161 185 8,200 -600 Descending Washington Center
04:31PM 36.5281 -77.1325 15° North 182 209 8,100 -540 Descending Washington Center
04:32PM 36.5575 -77.1125 29° Northeast 166 191 7,700 -480 Descending Washington Center
04:33PM 36.6036 -77.0822 28° Northeast 173 199 7,300 -360 Descending Washington Center
04:33PM 36.6247 -77.0722 21° North 186 214 7,200 -420 Descending Washington Center
04:34PM 36.6500 -77.0547 29° Northeast 178 205 6,900 -420 Descending Washington Center
04:34PM 36.6753 -77.0369 29° Northeast 180 207 6,800 -300 Descending Washington Center
04:35PM 36.6919 -77.0269 26° Northeast 178 205 6,600 -360 Descending Washington Center
04:36PM 36.7361 -76.9914 33° Northeast 178 205 6,300 -420 Descending Washington Center
04:36PM 36.7467 -76.9814 37° Northeast 186 214 6,100 -540 Descending Washington Center
04:37PM 36.7700 -76.9481 49° Northeast 183 211 5,800 -420 Descending Washington Center
04:37PM 36.7806 -76.9378 38° Northeast 184 212 5,700 -600 Descending Washington Center
04:38PM 36.8144 -76.8994 42° Northeast 183 211 5,200 -720 Descending Washington Center
04:38PM 36.8208 -76.8892 52° Northeast 185 213 5,000 -540 Descending Washington Center
04:39PM 36.8569 -76.8406 47° Northeast 173 199 4,500 -480 Descending Washington Center
04:40PM 36.8906 -76.7969 46° Northeast 174 200 4,000 -600 Descending Washington Center
04:41PM 36.9244 -76.7481 49° Northeast 172 198 3,400 -540 Descending Washington Center
04:42PM 36.9625 -76.7019 44° Northeast 173 199 2,900 -480 Descending Washington Center
04:43PM 36.9961 -76.6686 38° Northeast 170 196 2,500 -420 Descending Washington Center
04:44PM 37.0342 -76.6325 37° Northeast 170 196 2,100 -240 Descending Washington Center
04:45PM 37.0719 -76.6069 28° Northeast 159 183 2,100 -360 Level Washington Center
04:46PM 37.0950 -76.5631 57° Northeast 150 173 1,400 -600 Descending Washington Center
04:48PM 37.1142 -76.5294 54° Northeast 94 108 900 -480 Descending Washington Center